Time;durP1;ratioP1;P1;durP2;ratioP2;P2;SDS_P1;SDS_P2;PMS_P1;PMS_P2;Temp;Humidity;BMP_temperature;BMP_pressure;BME280_temperature;BME280_humidity;BME280_pressure;Samples;Min_cycle;Max_cycle;Signal;HPM_P1;HPM_P2
2024/03/05 00:00:42;;;;;;;1.60;1.20;;;8.70;98.20;;;;;;4854854;29;20498;-81
2024/03/05 00:03:10;;;;;;;1.60;1.20;;;8.70;98.20;;;;;;4866849;29;20487;-81
2024/03/05 00:05:37;;;;;;;1.60;1.20;;;8.60;98.20;;;;;;4858428;29;20475;-81
2024/03/05 00:08:04;;;;;;;1.50;1.20;;;8.60;98.20;;;;;;4864066;29;20497;-82
2024/03/05 00:10:31;;;;;;;1.60;1.30;;;8.50;98.20;;;;;;4855475;29;20527;-80
2024/03/05 00:12:58;;;;;;;2.13;2.03;;;8.50;98.20;;;;;;4865263;29;21071;-82
2024/03/05 00:15:26;;;;;;;1.60;1.20;;;8.40;98.20;;;;;;4857613;29;20475;-82
2024/03/05 00:17:55;;;;;;;1.77;1.67;;;8.40;98.20;;;;;;4850857;29;20511;-82
2024/03/05 00:20:22;;;;;;;1.53;1.10;;;8.40;98.20;;;;;;4853937;29;20463;-82
2024/03/05 00:22:50;;;;;;;1.57;1.10;;;8.40;98.20;;;;;;4866032;29;20482;-82
2024/03/05 00:25:16;;;;;;;1.60;1.30;;;8.40;98.20;;;;;;4853444;29;20476;-81
2024/03/05 00:27:44;;;;;;;1.50;1.20;;;8.30;98.20;;;;;;4863542;29;20489;-81
2024/03/05 00:30:13;;;;;;;1.60;1.27;;;8.30;98.20;;;;;;4854541;29;20584;-81
2024/03/05 00:32:40;;;;;;;1.53;1.20;;;8.30;98.20;;;;;;4857695;29;20609;-81
2024/03/05 00:35:09;;;;;;;1.53;1.10;;;8.20;98.20;;;;;;4853278;29;20479;-82
2024/03/05 00:37:36;;;;;;;1.57;1.20;;;8.20;98.20;;;;;;4846673;29;20641;-82
2024/03/05 00:40:06;;;;;;;1.57;1.20;;;8.20;98.20;;;;;;4855838;29;20467;-82
2024/03/05 00:42:33;;;;;;;1.60;1.30;;;8.10;98.20;;;;;;4865061;29;20505;-81
2024/03/05 00:44:59;;;;;;;1.53;1.10;;;8.10;98.20;;;;;;4860087;29;20552;-82
2024/03/05 00:47:26;;;;;;;1.60;1.30;;;8.00;98.20;;;;;;4862553;29;20494;-82
2024/03/05 00:49:54;;;;;;;1.57;1.30;;;8.00;98.20;;;;;;4860123;29;20503;-81
2024/03/05 00:52:24;;;;;;;1.60;1.30;;;8.00;98.20;;;;;;4862823;29;20902;-83
2024/03/05 00:54:50;;;;;;;1.60;1.30;;;7.90;98.20;;;;;;4854980;29;20487;-83
2024/03/05 00:57:17;;;;;;;1.53;1.20;;;7.90;98.20;;;;;;4859819;29;20490;-81
2024/03/05 00:59:44;;;;;;;1.60;1.20;;;7.90;98.20;;;;;;4860579;29;20472;-82
2024/03/05 01:02:11;;;;;;;1.60;1.23;;;7.90;98.20;;;;;;4859766;29;20492;-82
2024/03/05 01:04:38;;;;;;;1.57;1.23;;;7.80;98.20;;;;;;4863434;29;20467;-82
2024/03/05 01:07:05;;;;;;;1.60;1.40;;;7.80;98.20;;;;;;4854276;29;20497;-81
2024/03/05 01:09:33;;;;;;;1.57;1.20;;;7.70;98.20;;;;;;4859603;29;20495;-81
2024/03/05 01:12:00;;;;;;;1.60;1.20;;;7.70;98.20;;;;;;4855944;29;20497;-81
2024/03/05 01:14:26;;;;;;;1.60;1.30;;;7.70;98.20;;;;;;4863476;29;20485;-81
2024/03/05 01:16:53;;;;;;;1.60;1.20;;;7.60;98.20;;;;;;4855147;29;20515;-82
2024/03/05 01:19:20;;;;;;;1.60;1.20;;;7.60;98.20;;;;;;4864806;29;20477;-82
2024/03/05 01:21:47;;;;;;;1.60;1.30;;;7.50;98.20;;;;;;4852049;29;20543;-81
2024/03/05 01:24:14;;;;;;;1.60;1.30;;;7.50;98.20;;;;;;4863213;29;20479;-82
2024/03/05 01:26:43;;;;;;;1.53;1.20;;;7.50;98.20;;;;;;4853258;29;20501;-82
2024/03/05 01:29:12;;;;;;;1.53;1.20;;;7.40;98.20;;;;;;4860770;29;20700;-82
2024/03/05 01:31:38;;;;;;;1.60;1.30;;;7.40;98.20;;;;;;4850997;29;20493;-82
2024/03/05 01:34:05;;;;;;;1.53;1.30;;;7.30;98.20;;;;;;4866254;29;20490;-81
2024/03/05 01:36:32;;;;;;;1.57;1.20;;;7.30;98.20;;;;;;4852011;29;20492;-81
2024/03/05 01:38:59;;;;;;;1.53;1.20;;;7.20;98.20;;;;;;4866538;29;20969;-82
2024/03/05 01:41:26;;;;;;;1.60;1.40;;;7.20;98.20;;;;;;4853743;29;20478;-83
2024/03/05 01:43:54;;;;;;;1.60;1.30;;;7.10;98.20;;;;;;4865687;29;20558;-82
2024/03/05 01:46:21;;;;;;;1.60;1.20;;;7.10;98.20;;;;;;4852930;29;20896;-82
2024/03/05 01:48:48;;;;;;;1.60;1.20;;;7.00;98.20;;;;;;4864388;29;20484;-82
2024/03/05 01:51:18;;;;;;;1.60;1.20;;;7.00;98.20;;;;;;4850523;29;20482;-83
2024/03/05 01:53:46;;;;;;;1.60;1.40;;;7.00;98.20;;;;;;4869817;29;20524;-81
2024/03/05 01:56:17;;;;;;;1.60;1.30;;;7.00;98.20;;;;;;4852740;29;20478;-81
2024/03/05 01:58:45;;;;;;;1.57;1.30;;;6.90;98.20;;;;;;4869752;29;21018;-81
2024/03/05 02:01:14;;;;;;;1.60;1.33;;;6.90;98.20;;;;;;4845494;29;20495;-82
2024/03/05 02:03:41;;;;;;;1.57;1.20;;;6.90;98.20;;;;;;4870115;29;20472;-82
2024/03/05 02:06:10;;;;;;;1.60;1.30;;;6.90;98.20;;;;;;4846034;29;21845;-82
2024/03/05 02:08:38;;;;;;;1.60;1.30;;;6.90;98.20;;;;;;4865749;29;20532;-81
2024/03/05 02:11:07;;;;;;;1.60;1.30;;;6.90;98.20;;;;;;4850512;29;20503;-82
2024/03/05 02:13:35;;;;;;;1.60;1.30;;;7.00;98.20;;;;;;4871883;29;20475;-82
2024/03/05 02:16:02;;;;;;;1.60;1.30;;;7.00;98.20;;;;;;4846221;29;20471;-82
2024/03/05 02:18:30;;;;;;;1.53;1.20;;;7.00;98.20;;;;;;4866988;29;20476;-82
2024/03/05 02:21:01;;;;;;;1.57;1.20;;;7.00;98.20;;;;;;4849082;29;20498;-83
2024/03/05 02:23:28;;;;;;;1.50;1.20;;;7.10;98.20;;;;;;4872022;29;21050;-82
2024/03/05 02:25:56;;;;;;;1.53;1.20;;;7.10;98.20;;;;;;4845819;29;20540;-81
2024/03/05 02:28:22;;;;;;;1.60;1.30;;;7.10;98.20;;;;;;4872720;29;20482;-83
2024/03/05 02:30:49;;;;;;;1.60;1.40;;;7.20;98.20;;;;;;4847752;29;20491;-84
2024/03/05 02:33:17;;;;;;;1.57;1.20;;;7.20;98.20;;;;;;4871733;29;20498;-82
2024/03/05 02:35:46;;;;;;;1.53;1.20;;;7.20;98.20;;;;;;4859348;29;20475;-82
2024/03/05 02:38:14;;;;;;;1.53;1.20;;;7.20;98.20;;;;;;4846465;29;20479;-83
2024/03/05 02:40:41;;;;;;;1.57;1.20;;;7.20;98.20;;;;;;4856872;29;20968;-82
2024/03/05 02:43:07;;;;;;;1.53;1.20;;;7.20;98.20;;;;;;4863309;29;21014;-82
2024/03/05 02:45:35;;;;;;;1.60;1.20;;;7.10;98.20;;;;;;4859082;29;20475;-82
2024/03/05 02:48:03;;;;;;;1.60;1.20;;;7.10;98.20;;;;;;4854690;29;20986;-82
2024/03/05 02:50:29;;;;;;;4.27;3.97;;;7.10;98.20;;;;;;4858982;29;20503;-82
2024/03/05 02:52:57;;;;;;;1.60;1.30;;;7.00;98.20;;;;;;4862738;29;20501;-81
2024/03/05 02:55:25;;;;;;;1.60;1.20;;;7.00;98.20;;;;;;4858746;29;21002;-82
2024/03/05 02:57:52;;;;;;;1.67;1.53;;;7.00;98.20;;;;;;4863620;29;20486;-81
2024/03/05 03:00:19;;;;;;;1.60;1.40;;;7.00;98.20;;;;;;4858636;29;20472;-80
2024/03/05 03:02:48;;;;;;;1.53;1.20;;;7.00;98.20;;;;;;4862819;29;20494;-81
2024/03/05 03:05:16;;;;;;;3.40;3.10;;;7.00;98.20;;;;;;4859276;29;20512;-81
2024/03/05 03:07:44;;;;;;;1.60;1.50;;;7.00;98.20;;;;;;4864153;29;20581;-83
2024/03/05 03:10:12;;;;;;;1.57;1.20;;;7.10;98.20;;;;;;4859488;29;20906;-81
2024/03/05 03:12:40;;;;;;;1.60;1.20;;;7.10;98.20;;;;;;4861567;29;20494;-82
2024/03/05 03:15:08;;;;;;;1.57;1.20;;;7.10;98.20;;;;;;4859710;29;20481;-82
2024/03/05 03:17:35;;;;;;;1.60;1.40;;;7.10;98.20;;;;;;4862877;29;20591;-82
2024/03/05 03:20:03;;;;;;;1.60;1.30;;;7.10;98.20;;;;;;4860037;29;20467;-82
2024/03/05 03:22:30;;;;;;;1.60;1.30;;;7.20;98.20;;;;;;4862188;29;21009;-82
2024/03/05 03:24:57;;;;;;;1.53;1.20;;;7.20;98.20;;;;;;4863565;29;20475;-83
2024/03/05 03:27:24;;;;;;;1.57;1.20;;;7.20;98.20;;;;;;4852177;29;20947;-82
2024/03/05 03:29:53;;;;;;;1.53;1.20;;;7.20;98.20;;;;;;4858657;29;20498;-82
2024/03/05 03:32:20;;;;;;;2.90;2.70;;;7.20;98.20;;;;;;4863421;29;20602;-82
2024/03/05 03:34:47;;;;;;;1.53;1.20;;;7.20;98.20;;;;;;4865080;29;20531;-81
2024/03/05 03:37:14;;;;;;;1.60;1.20;;;7.20;98.20;;;;;;4858095;29;20518;-81
2024/03/05 03:39:42;;;;;;;2.53;2.33;;;7.20;98.20;;;;;;4860762;29;20475;-81
2024/03/05 03:42:10;;;;;;;1.60;1.30;;;7.20;98.20;;;;;;4857790;29;20517;-81
2024/03/05 03:44:37;;;;;;;1.50;1.20;;;7.30;98.20;;;;;;4862561;29;20471;-80
2024/03/05 03:47:05;;;;;;;1.53;1.20;;;7.30;98.20;;;;;;4847579;29;20490;-80
2024/03/05 03:49:32;;;;;;;1.60;1.30;;;7.30;98.20;;;;;;4859342;29;20475;-82
2024/03/05 03:51:59;;;;;;;1.57;1.20;;;7.30;98.20;;;;;;4860089;29;20498;-80
2024/03/05 03:54:26;;;;;;;1.60;1.30;;;7.30;98.20;;;;;;4868211;29;20475;-82
2024/03/05 03:56:53;;;;;;;1.53;1.20;;;7.40;98.20;;;;;;4860488;29;21382;-84
2024/03/05 03:59:20;;;;;;;1.60;1.40;;;7.40;98.20;;;;;;4867198;29;21026;-83
2024/03/05 04:01:47;;;;;;;1.70;1.50;;;7.40;98.20;;;;;;4860858;29;20799;-83
2024/03/05 04:04:15;;;;;;;1.60;1.30;;;7.40;98.20;;;;;;4867655;29;20982;-79
2024/03/05 04:06:43;;;;;;;1.60;1.20;;;7.50;98.20;;;;;;4859465;29;21029;-79
2024/03/05 04:09:13;;;;;;;1.60;1.30;;;7.50;98.20;;;;;;4867492;29;20478;-80
2024/03/05 04:11:40;;;;;;;1.60;1.40;;;7.50;98.20;;;;;;4852478;29;20546;-79
2024/03/05 04:14:07;;;;;;;1.60;1.20;;;7.40;98.20;;;;;;4862283;29;20479;-80
2024/03/05 04:16:34;;;;;;;1.60;1.33;;;7.40;98.20;;;;;;4851028;29;21020;-80
2024/03/05 04:19:01;;;;;;;1.50;1.20;;;7.50;98.20;;;;;;4856320;29;20511;-79
2024/03/05 04:21:29;;;;;;;1.60;1.30;;;7.50;98.20;;;;;;4848132;29;20497;-79
2024/03/05 04:23:56;;;;;;;2.40;2.20;;;7.50;98.20;;;;;;4859442;29;20846;-79
2024/03/05 04:26:23;;;;;;;1.50;1.20;;;7.50;98.20;;;;;;4851435;29;20515;-79
2024/03/05 04:28:52;;;;;;;1.53;1.20;;;7.40;98.20;;;;;;4858732;29;20476;-80
2024/03/05 04:31:20;;;;;;;1.60;1.30;;;7.40;98.20;;;;;;4854900;29;20509;-80
2024/03/05 04:33:48;;;;;;;1.60;1.30;;;7.50;98.20;;;;;;4871427;29;21021;-80
2024/03/05 04:36:14;;;;;;;1.50;1.20;;;7.40;98.20;;;;;;4854402;29;21069;-80
2024/03/05 04:38:44;;;;;;;1.57;1.30;;;7.40;98.20;;;;;;4870811;29;20470;-80
2024/03/05 04:41:13;;;;;;;1.60;1.30;;;7.40;98.20;;;;;;4853958;29;20517;-81
2024/03/05 04:43:40;;;;;;;1.60;1.20;;;7.50;98.20;;;;;;4872289;29;20475;-79
2024/03/05 04:48:46;;;;;;;1.60;1.30;;;7.50;98.20;;;;;;5071310;23;20501;-84
2024/03/05 04:51:13;;;;;;;1.60;1.20;;;7.50;98.20;;;;;;4869001;29;21012;-83
2024/03/05 04:53:40;;;;;;;1.57;1.20;;;7.50;98.20;;;;;;4886147;29;20481;-84
2024/03/05 04:56:08;;;;;;;1.57;1.20;;;7.50;98.20;;;;;;4862951;29;20497;-81
2024/03/05 04:58:38;;;;;;;2.07;1.87;;;7.50;98.20;;;;;;4883141;29;20495;-86
2024/03/05 05:01:20;;;;;;;1.53;1.20;;;7.40;98.20;;;;;;4868496;29;20475;-86
2024/03/05 05:03:47;;;;;;;1.57;1.30;;;7.40;98.20;;;;;;4910882;23;20605;-80
2024/03/05 05:06:15;;;;;;;1.60;1.30;;;7.40;98.20;;;;;;4866742;29;20481;-81
2024/03/05 05:08:42;;;;;;;1.57;1.20;;;7.40;98.20;;;;;;4887609;29;20479;-80
2024/03/05 05:11:10;;;;;;;1.60;1.20;;;7.40;98.20;;;;;;4869094;29;20491;-81
2024/03/05 05:13:37;;;;;;;1.50;1.20;;;7.40;98.20;;;;;;4889480;29;20502;-80
2024/03/05 05:16:08;;;;;;;1.60;1.20;;;7.40;98.20;;;;;;4865912;29;20760;-82
2024/03/05 05:18:35;;;;;;;1.63;1.53;;;7.40;98.20;;;;;;4887828;29;20478;-81
2024/03/05 05:21:02;;;;;;;3.67;3.40;;;7.40;98.20;;;;;;4866869;29;20477;-83
2024/03/05 05:23:29;;;;;;;1.57;1.20;;;7.40;98.20;;;;;;4890218;29;20524;-83
2024/03/05 05:25:55;;;;;;;3.03;2.83;;;7.40;98.20;;;;;;4870490;29;20872;-82
2024/03/05 05:28:23;;;;;;;1.57;1.20;;;7.40;98.20;;;;;;4886696;29;20479;-81
2024/03/05 05:30:51;;;;;;;4.13;3.83;;;7.40;98.20;;;;;;4866327;29;20513;-83
2024/03/05 05:33:18;;;;;;;1.53;1.20;;;7.40;98.20;;;;;;4875253;29;20518;-83
2024/03/05 05:35:45;;;;;;;1.60;1.30;;;7.40;98.20;;;;;;4878804;29;21020;-84
2024/03/05 05:38:12;;;;;;;1.57;1.20;;;7.40;98.20;;;;;;4865598;29;20591;-83
2024/03/05 05:40:39;;;;;;;1.57;1.20;;;7.40;98.20;;;;;;4877637;29;20522;-84
2024/03/05 05:43:08;;;;;;;1.53;1.20;;;7.40;98.20;;;;;;4865550;29;20504;-80
2024/03/05 05:45:37;;;;;;;1.60;1.30;;;7.40;98.20;;;;;;4874408;29;20466;-83
2024/03/05 05:48:05;;;;;;;1.60;1.17;;;7.40;98.20;;;;;;4881947;29;20509;-85
2024/03/05 05:50:32;;;;;;;2.27;2.07;;;7.40;98.20;;;;;;4879675;29;20486;-85
2024/03/05 05:52:59;;;;;;;1.60;1.23;;;7.40;98.20;;;;;;4884589;29;20557;-85
2024/03/05 05:55:26;;;;;;;1.57;1.20;;;7.40;98.20;;;;;;4875512;29;20671;-84
2024/03/05 05:57:54;;;;;;;1.57;1.20;;;7.50;98.20;;;;;;4869695;29;20500;-84
2024/03/05 06:00:31;;;;;;;1.60;1.30;;;7.50;98.20;;;;;;4874290;29;20883;-83
2024/03/05 06:03:00;;;;;;;1.60;1.30;;;7.50;98.20;;;;;;4863563;29;20946;-83
2024/03/05 06:05:28;;;;;;;1.60;1.30;;;7.50;98.20;;;;;;4876371;29;20551;-82
2024/03/05 06:07:56;;;;;;;1.57;1.20;;;7.60;98.20;;;;;;4883894;29;20528;-84
2024/03/05 06:10:23;;;;;;;1.60;1.50;;;7.60;98.20;;;;;;4877464;29;20481;-82
2024/03/05 06:12:50;;;;;;;1.83;1.63;;;7.60;98.20;;;;;;4869170;29;20490;-85
2024/03/05 06:15:18;;;;;;;1.53;1.20;;;7.60;98.20;;;;;;4878897;29;20502;-77
2024/03/05 06:17:46;;;;;;;1.60;1.40;;;7.60;98.20;;;;;;4867528;29;20958;-81
2024/03/05 06:20:15;;;;;;;1.60;1.30;;;7.70;98.20;;;;;;4877955;29;20485;-79
2024/03/05 06:22:43;;;;;;;1.60;1.20;;;7.70;98.20;;;;;;4861956;29;20490;-81
2024/03/05 06:25:13;;;;;;;1.60;1.20;;;7.70;98.20;;;;;;4876470;29;20471;-80
2024/03/05 06:27:40;;;;;;;1.50;1.20;;;7.70;98.20;;;;;;4866300;29;20505;-82
2024/03/05 06:30:13;;;;;;;1.53;1.20;;;7.80;98.20;;;;;;4876288;29;20478;-81
2024/03/05 06:32:42;;;;;;;1.60;1.30;;;7.80;98.20;;;;;;4866371;29;20498;-79
2024/03/05 06:35:10;;;;;;;1.57;1.20;;;7.80;98.20;;;;;;4874453;29;20475;-80
2024/03/05 06:37:39;;;;;;;1.60;1.30;;;7.80;98.20;;;;;;4876464;29;20497;-80
2024/03/05 06:40:09;;;;;;;1.57;1.20;;;7.80;98.20;;;;;;4867885;29;20470;-80
2024/03/05 06:42:36;;;;;;;1.53;1.20;;;7.80;98.20;;;;;;4862785;29;20497;-83
2024/03/05 06:45:06;;;;;;;1.57;1.20;;;7.80;98.20;;;;;;4872791;29;20560;-81
2024/03/05 06:47:38;;;;;;;1.57;1.20;;;7.90;98.20;;;;;;4861913;29;20590;-78
2024/03/05 06:50:08;;;;;;;1.60;1.30;;;7.90;98.20;;;;;;4872412;29;20471;-80
2024/03/05 06:58:07;;;;;;;1.57;1.23;;;7.90;98.20;;;;;;4874603;29;20988;-78
2024/03/05 07:00:34;;;;;;;1.60;1.20;;;8.00;98.20;;;;;;4876632;29;20549;-79
2024/03/05 07:03:04;;;;;;;1.60;1.30;;;8.00;98.20;;;;;;4866127;29;20563;-81
2024/03/05 07:05:32;;;;;;;1.53;1.20;;;8.00;98.20;;;;;;4878557;29;20474;-80
2024/03/05 07:07:59;;;;;;;1.57;1.20;;;8.10;98.20;;;;;;4868609;29;20905;-81
2024/03/05 07:10:27;;;;;;;1.53;1.10;;;8.10;98.20;;;;;;4878051;29;20554;-79
2024/03/05 07:12:55;;;;;;;1.53;1.20;;;8.20;98.20;;;;;;4867186;29;20502;-81
2024/03/05 07:15:23;;;;;;;1.57;1.20;;;8.20;98.20;;;;;;4878984;29;20546;-79
2024/03/05 07:17:50;;;;;;;1.53;1.20;;;8.20;98.20;;;;;;4875945;29;20497;-81
2024/03/05 07:20:19;;;;;;;1.60;1.20;;;8.30;98.20;;;;;;4877835;29;20501;-79
2024/03/05 07:22:47;;;;;;;1.57;1.20;;;8.30;98.20;;;;;;4871651;29;20509;-78
2024/03/05 07:25:15;;;;;;;1.50;1.20;;;8.30;98.20;;;;;;4880020;29;20478;-78
2024/03/05 07:27:44;;;;;;;1.53;1.20;;;8.20;98.20;;;;;;4878445;29;20489;-77
2024/03/05 07:30:15;;;;;;;1.60;1.30;;;8.30;98.20;;;;;;4874102;29;20474;-81
2024/03/05 07:32:45;;;;;;;1.53;1.20;;;8.30;98.20;;;;;;4882916;29;20493;-80
2024/03/05 07:35:12;;;;;;;1.60;1.30;;;8.30;98.20;;;;;;4878348;29;21178;-81
2024/03/05 07:37:41;;;;;;;1.67;1.30;;;8.30;98.20;;;;;;4866198;29;20502;-82
2024/03/05 07:40:16;;;;;;;1.57;1.23;;;8.30;98.20;;;;;;4883368;29;20469;-82
2024/03/05 07:42:45;;;;;;;1.50;1.20;;;8.30;98.20;;;;;;4865389;29;20561;-79
2024/03/05 07:45:13;;;;;;;1.50;1.10;;;8.40;98.20;;;;;;4868296;29;20474;-79
2024/03/05 07:47:40;;;;;;;1.57;1.20;;;8.40;98.20;;;;;;4865402;29;21084;-79
2024/03/05 07:50:11;;;;;;;1.53;1.20;;;8.40;98.20;;;;;;4878006;29;20478;-80
2024/03/05 07:52:37;;;;;;;1.57;1.10;;;8.40;98.20;;;;;;4875775;29;20588;-77
2024/03/05 07:55:06;;;;;;;1.60;1.20;;;8.40;98.20;;;;;;4885722;29;20485;-78
2024/03/05 07:57:34;;;;;;;1.57;1.17;;;8.50;98.20;;;;;;4869147;29;20498;-81
2024/03/05 08:00:08;;;;;;;1.50;1.17;;;8.50;98.20;;;;;;4873772;29;20503;-79
2024/03/05 08:02:36;;;;;;;1.57;1.20;;;8.50;98.20;;;;;;4887370;29;20590;-80
2024/03/05 08:05:04;;;;;;;1.50;1.10;;;8.50;98.20;;;;;;4884317;29;20896;-78
2024/03/05 08:07:32;;;;;;;1.57;1.20;;;8.50;98.20;;;;;;4866215;29;20481;-78
2024/03/05 08:10:00;;;;;;;1.60;1.20;;;8.60;98.20;;;;;;4879218;29;20557;-79
2024/03/05 08:12:27;;;;;;;1.57;1.20;;;8.60;98.20;;;;;;4868711;29;20496;-78
2024/03/05 08:14:55;;;;;;;1.57;1.20;;;8.60;98.20;;;;;;4881881;29;20565;-80
2024/03/05 08:17:24;;;;;;;1.60;1.40;;;8.60;98.20;;;;;;4877719;29;20483;-80
2024/03/05 08:19:51;;;;;;;1.53;1.20;;;8.60;98.20;;;;;;4884356;29;20485;-80
2024/03/05 08:22:20;;;;;;;1.53;1.20;;;8.70;98.20;;;;;;4888115;29;21023;-80
2024/03/05 08:24:47;;;;;;;1.60;1.20;;;8.70;98.20;;;;;;4887045;29;20506;-78
2024/03/05 08:27:13;;;;;;;1.57;1.17;;;8.70;98.20;;;;;;4884488;29;20512;-79
2024/03/05 08:29:40;;;;;;;1.53;1.20;;;8.80;98.20;;;;;;4884525;29;20481;-79
2024/03/05 08:32:09;;;;;;;1.60;1.27;;;8.80;98.20;;;;;;4886936;29;21007;-79
2024/03/05 08:34:38;;;;;;;1.57;1.10;;;8.90;98.20;;;;;;4890863;29;20507;-81
2024/03/05 08:37:04;;;;;;;1.53;1.17;;;8.90;98.20;;;;;;4872737;29;20502;-81
2024/03/05 08:39:32;;;;;;;1.53;1.10;;;8.90;98.20;;;;;;4883451;29;21040;-79
2024/03/05 08:42:00;;;;;;;1.53;1.10;;;8.90;98.20;;;;;;4878961;29;20853;-80
2024/03/05 08:44:27;;;;;;;1.60;1.20;;;9.00;98.20;;;;;;4884229;29;20474;-79
2024/03/05 08:46:54;;;;;;;1.60;1.20;;;9.00;98.20;;;;;;4868361;29;20487;-79
2024/03/05 08:49:22;;;;;;;1.50;1.10;;;9.00;98.20;;;;;;4876592;29;20470;-81
2024/03/05 08:51:50;;;;;;;1.53;1.10;;;9.00;98.20;;;;;;4867571;29;20949;-80
2024/03/05 08:54:16;;;;;;;1.50;1.10;;;9.00;98.20;;;;;;4876074;29;20474;-81
2024/03/05 08:56:43;;;;;;;1.50;1.10;;;9.00;98.20;;;;;;4868583;29;20501;-80
2024/03/05 08:59:16;;;;;;;1.53;1.10;;;9.00;98.20;;;;;;4875766;29;20471;-82
2024/03/05 09:01:43;;;;;;;1.57;1.10;;;9.00;98.20;;;;;;4868708;29;20486;-81
2024/03/05 09:04:10;;;;;;;1.53;1.10;;;9.00;98.20;;;;;;4877304;29;20494;-79
2024/03/05 09:06:37;;;;;;;1.50;1.03;;;9.00;98.20;;;;;;4868686;29;20494;-83
2024/03/05 09:09:06;;;;;;;1.60;1.20;;;9.00;98.20;;;;;;4873431;29;20467;-82
2024/03/05 09:11:34;;;;;;;1.50;1.10;;;9.00;98.20;;;;;;4866825;29;20497;-81
2024/03/05 09:14:02;;;;;;;1.53;1.10;;;9.00;98.20;;;;;;4876481;29;20490;-80
2024/03/05 09:16:29;;;;;;;1.53;1.20;;;9.00;98.20;;;;;;4864635;29;20559;-81
2024/03/05 09:18:56;;;;;;;1.57;1.20;;;9.00;98.20;;;;;;4875088;29;20869;-81
2024/03/05 09:21:22;;;;;;;1.50;1.10;;;9.00;98.20;;;;;;4864345;29;20490;-80
2024/03/05 09:23:50;;;;;;;1.53;1.20;;;9.00;98.20;;;;;;4876855;29;20490;-81
2024/03/05 09:26:18;;;;;;;1.53;1.10;;;9.00;98.20;;;;;;4864251;29;20521;-80
2024/03/05 09:28:44;;;;;;;1.50;1.10;;;9.00;98.20;;;;;;4870093;29;20538;-80
2024/03/05 09:31:11;;;;;;;1.57;1.20;;;9.00;98.20;;;;;;4862969;29;20481;-79
2024/03/05 09:33:38;;;;;;;1.60;1.30;;;9.00;98.20;;;;;;4874476;29;20501;-81
2024/03/05 09:36:08;;;;;;;1.50;1.10;;;9.00;98.20;;;;;;4863700;29;20467;-80
2024/03/05 09:38:35;;;;;;;2.10;1.83;;;9.00;98.20;;;;;;4884758;29;20880;-80
2024/03/05 09:41:04;;;;;;;1.50;1.20;;;9.00;98.20;;;;;;4866829;29;20481;-80
2024/03/05 09:43:32;;;;;;;1.60;1.30;;;9.00;98.20;;;;;;4875415;29;20576;-81
2024/03/05 09:46:04;;;;;;;1.53;1.10;;;9.00;98.20;;;;;;4869076;29;20477;-80
2024/03/05 09:48:32;;;;;;;1.57;1.10;;;9.00;98.20;;;;;;4876947;29;20470;-81
2024/03/05 09:51:00;;;;;;;1.50;1.00;;;9.00;98.20;;;;;;4874728;29;20522;-81
2024/03/05 09:53:27;;;;;;;1.50;1.10;;;9.00;98.20;;;;;;4869168;29;20506;-81
2024/03/05 09:55:55;;;;;;;1.53;1.20;;;9.00;98.20;;;;;;4876130;29;20504;-80
2024/03/05 09:58:35;;;;;;;1.60;1.27;;;9.00;98.20;;;;;;4880923;29;20534;-79
2024/03/05 10:01:05;;;;;;;1.53;1.10;;;9.00;98.20;;;;;;4876416;29;20466;-79
2024/03/05 10:03:32;;;;;;;1.53;1.20;;;9.00;98.20;;;;;;4885048;29;20510;-80
2024/03/05 10:06:00;;;;;;;1.50;1.10;;;9.10;98.20;;;;;;4869318;29;20565;-78
2024/03/05 10:08:27;;;;;;;1.50;1.10;;;9.10;98.20;;;;;;4871002;29;20546;-82
2024/03/05 10:10:59;;;;;;;1.60;1.20;;;9.10;98.20;;;;;;4873811;29;20538;-81
2024/03/05 10:13:32;;;;;;;1.50;1.10;;;9.10;98.20;;;;;;4874200;29;20498;-82
2024/03/05 10:16:20;;;;;;;2.17;1.97;;;9.10;98.20;;;;;;4873455;29;20493;-81
2024/03/05 10:18:47;;;;;;;1.60;1.20;;;9.20;98.20;;;;;;4880777;29;20489;-81
2024/03/05 10:21:19;;;;;;;1.57;1.13;;;9.20;98.20;;;;;;4870010;29;20694;-81
2024/03/05 10:23:46;;;;;;;1.57;1.10;;;9.20;98.20;;;;;;4874886;29;20487;-81
2024/03/05 10:26:24;;;;;;;1.53;1.10;;;9.20;98.20;;;;;;4864800;29;20509;-79
2024/03/05 10:28:51;;;;;;;1.53;1.07;;;9.30;98.20;;;;;;4880040;29;20466;-82
2024/03/05 10:31:24;;;;;;;1.57;1.20;;;9.30;98.20;;;;;;4874489;29;20481;-80
2024/03/05 10:33:54;;;;;;;1.50;1.10;;;9.30;98.20;;;;;;4883440;29;20491;-82
2024/03/05 10:36:31;;;;;;;1.60;1.20;;;9.40;98.20;;;;;;4877736;29;20489;-82
2024/03/05 10:38:58;;;;;;;1.50;1.10;;;9.40;98.20;;;;;;4893173;29;20473;-81
2024/03/05 10:41:29;;;;;;;1.60;1.20;;;9.50;98.20;;;;;;4875098;29;21012;-81
2024/03/05 10:44:00;;;;;;;1.57;1.10;;;9.60;98.20;;;;;;4896255;29;20640;-82
2024/03/05 10:46:29;;;;;;;1.53;1.10;;;9.60;98.20;;;;;;4873236;29;20526;-82
2024/03/05 10:48:58;;;;;;;1.60;1.10;;;9.70;98.20;;;;;;4886526;29;20466;-81
2024/03/05 10:51:28;;;;;;;1.60;1.20;;;9.70;98.20;;;;;;4880917;29;20477;-82
2024/03/05 10:54:00;;;;;;;1.60;1.30;;;9.80;98.20;;;;;;4888445;29;20571;-82
2024/03/05 10:56:27;;;;;;;1.50;1.10;;;9.80;98.20;;;;;;4871551;29;20497;-82
2024/03/05 11:01:39;;;;;;;1.50;1.10;;;9.90;98.20;;;;;;4860964;29;20485;-82
2024/03/05 11:04:11;;;;;;;1.60;1.10;;;9.90;98.20;;;;;;4889244;29;20553;-79
2024/03/05 11:06:40;;;;;;;1.60;1.20;;;9.90;98.20;;;;;;4880096;29;20540;-82
2024/03/05 11:09:08;;;;;;;1.50;1.10;;;10.00;98.20;;;;;;4888753;29;20477;-82
2024/03/05 11:11:37;;;;;;;1.50;1.10;;;10.00;98.20;;;;;;4876901;29;20485;-83
2024/03/05 11:14:05;;;;;;;1.53;1.10;;;10.00;98.20;;;;;;4890824;29;20498;-81
2024/03/05 11:16:35;;;;;;;1.53;1.00;;;10.00;98.20;;;;;;4878132;29;20996;-81
2024/03/05 11:19:06;;;;;;;1.53;1.10;;;10.00;98.20;;;;;;4892198;29;20470;-81
2024/03/05 11:21:37;;;;;;;3.77;2.13;;;10.00;98.20;;;;;;4873713;29;20483;-81
2024/03/05 11:24:04;;;;;;;1.57;1.10;;;10.00;98.20;;;;;;4885085;29;20506;-81
2024/03/05 11:26:33;;;;;;;1.57;1.03;;;10.00;98.20;;;;;;4878268;29;20486;-82
2024/03/05 11:29:28;;;;;;;1.60;1.10;;;10.00;98.20;;;;;;4893701;29;20474;-80
2024/03/05 11:31:55;;;;;;;1.53;1.10;;;10.00;98.20;;;;;;4877666;29;20486;-81
2024/03/05 11:34:23;;;;;;;1.50;1.00;;;10.00;98.20;;;;;;4888733;29;20474;-81
2024/03/05 11:37:05;;;;;;;1.60;1.10;;;10.00;98.20;;;;;;4875602;29;20560;-80
2024/03/05 11:39:32;;;;;;;1.57;1.10;;;10.00;98.20;;;;;;4882045;29;20480;-79
2024/03/05 11:42:00;;;;;;;1.57;1.13;;;9.90;98.20;;;;;;4880767;29;20500;-81
2024/03/05 11:44:51;;;;;;;1.57;1.10;;;9.90;98.20;;;;;;4883245;29;20486;-80
2024/03/05 11:47:20;;;;;;;1.60;1.10;;;9.90;98.20;;;;;;4864873;29;20503;-84
2024/03/05 11:49:49;;;;;;;1.53;1.00;;;9.90;98.20;;;;;;4875892;29;20475;-82
2024/03/05 11:52:18;;;;;;;1.53;1.10;;;9.90;98.20;;;;;;4880871;29;20660;-83
2024/03/05 11:54:45;;;;;;;1.50;1.10;;;9.90;98.20;;;;;;4886008;29;20462;-84
2024/03/05 11:57:14;;;;;;;1.53;1.10;;;9.90;98.20;;;;;;4882406;29;20512;-83
2024/03/05 11:59:41;;;;;;;1.57;1.10;;;9.90;98.20;;;;;;4884001;29;20529;-82
2024/03/05 12:02:11;;;;;;;1.50;1.10;;;9.90;98.20;;;;;;4864433;29;21040;-82
2024/03/05 12:04:38;;;;;;;1.50;1.00;;;9.90;98.20;;;;;;4877833;29;20487;-82
2024/03/05 12:07:07;;;;;;;1.50;1.10;;;9.90;98.20;;;;;;4880353;29;20558;-81
2024/03/05 12:09:37;;;;;;;1.57;1.10;;;9.90;98.20;;;;;;4884686;29;20475;-81
2024/03/05 12:12:06;;;;;;;1.50;1.10;;;9.90;98.20;;;;;;4879252;29;20857;-82
2024/03/05 12:14:34;;;;;;;1.60;1.20;;;10.00;98.20;;;;;;4880300;29;20491;-83
2024/03/05 12:17:03;;;;;;;1.53;1.03;;;10.00;98.20;;;;;;4881767;29;20786;-82
2024/03/05 12:19:30;;;;;;;1.57;1.10;;;10.00;98.20;;;;;;4884561;29;20477;-81
2024/03/05 12:21:59;;;;;;;1.53;1.10;;;10.00;98.20;;;;;;4879950;29;20512;-81
2024/03/05 12:24:27;;;;;;;1.60;1.30;;;10.00;98.20;;;;;;4877439;29;20547;-81
2024/03/05 12:26:55;;;;;;;1.60;1.10;;;10.00;98.20;;;;;;4876136;29;20481;-82
2024/03/05 12:29:36;;;;;;;1.50;1.10;;;10.10;98.20;;;;;;4885871;29;20471;-80
2024/03/05 12:32:07;;;;;;;1.60;1.10;;;10.10;98.20;;;;;;4882498;29;20500;-81
2024/03/05 12:34:35;;;;;;;1.53;1.03;;;10.10;98.20;;;;;;4881711;29;20503;-81
2024/03/05 12:37:07;;;;;;;1.60;1.30;;;10.20;98.20;;;;;;4877801;29;20869;-81
2024/03/05 12:39:36;;;;;;;1.57;1.10;;;10.20;98.20;;;;;;4889590;29;20472;-81
2024/03/05 12:42:05;;;;;;;1.60;1.10;;;10.30;98.20;;;;;;4883348;29;20561;-82
2024/03/05 12:44:32;;;;;;;1.60;1.10;;;10.30;98.20;;;;;;4885239;29;20479;-81
2024/03/05 12:47:07;;;;;;;1.60;1.10;;;10.30;98.20;;;;;;4875680;29;20497;-80
2024/03/05 12:49:38;;;;;;;1.57;1.10;;;10.30;98.20;;;;;;4880572;29;20465;-82
2024/03/05 12:52:06;;;;;;;1.60;1.20;;;10.40;98.20;;;;;;4882564;29;20489;-82
2024/03/05 12:54:33;;;;;;;1.60;1.20;;;10.40;98.20;;;;;;4877129;29;20503;-81
2024/03/05 12:57:01;;;;;;;1.60;1.20;;;10.40;98.20;;;;;;4871511;29;20496;-81
2024/03/05 12:59:29;;;;;;;1.57;1.10;;;10.50;98.20;;;;;;4881397;29;20507;-82
2024/03/05 13:01:58;;;;;;;1.57;1.10;;;10.50;98.20;;;;;;4880591;29;20500;-81
2024/03/05 13:04:25;;;;;;;1.57;1.10;;;10.50;98.20;;;;;;4880852;29;20478;-84
2024/03/05 13:06:52;;;;;;;1.57;1.10;;;10.50;98.20;;;;;;4871929;29;20531;-80
2024/03/05 13:09:20;;;;;;;1.57;1.10;;;10.50;98.20;;;;;;4881639;29;20467;-82
2024/03/05 13:11:47;;;;;;;1.60;1.10;;;10.50;98.20;;;;;;4868820;29;20707;-82